Airfield :
LOGIN :

Register | Disclaimer

   EN    FR    IT 

 










Legend :    VFR   Marginal VFR   IFR   Intensive IFR   Very Intensive IFR
Visi :
Ceiling :
>= 8 km
>= 3000ft
5 to 8 km
1000 to 3000 ft
1500m to 5 km
500 to 1000 ft
800 to 1500m
200 to 500 ft
< 800m
< 200 ft
Symbols :   Thunderstorms  Fog  Heavy snow  Heavy precipitations  Wind > 20 kt
SIGMETs :     Misc.  Thunderstorms  Icing  Turbulence  Mountain Waves  Volcanic Ashes






- Airport Elevation : 499 ft
- IATA code : TLS


LFBO - Toulouse / Blagnac

CURRENT METAR :
  • 141000Z AUTO 27009KT 230V320 9999 FEW031 24/14 Q1019 NOSIG

EXPIRED METARs :
  • 140930Z AUTO 28009KT 230V330 CAVOK 23/14 Q1020 NOSIG
  • 140900Z AUTO 28009KT 240V320 CAVOK 22/14 Q1020 NOSIG
  • 140830Z AUTO 29009KT 260V330 9999 SCT022 21/14 Q1020 NOSIG
  • 140800Z AUTO 28010KT 9999 SCT019 BKN220 BKN240 19/14 Q1020 NOSIG
  • 140730Z AUTO 27009KT 9999 SCT016 SCT220 BKN240 19/14 Q1020 NOSIG
  • 140700Z AUTO 28009KT 9999 FEW013 SCT230 18/14 Q1020 NOSIG

TAF TAF LFBO
Valid from the 14 at 06:00 until the 15 at 12:00 UTC


140500Z 1406/1512 28010KT CAVOK
PROB30
TEMPO 1420/1423 28015G25KT
BECMG 1503/1505 BKN018
BECMG 1508/1510 BKN035
ATIS : +33 5 62 74 66 36



MET'MAP, your aeronautical weather chart ! - Copyright ORBIFLY December 2007 - Disclaimer

ORBIFLY MET'MAP TEAM :

Programming & Development : Alexandra Zaïnal
Concept & original design : Baudouin d'Aumeries
Assistance for programming : Marc-Olivier Méhu
Technical & hardware support : Manuel Goepfert

Contact : metmap@orbifly.com




SOURCES & CREDITS :

   NOAA